sensor_id;sensor_type;location;lat;lon;timestamp;P1;durP1;ratioP1;P2;durP2;ratioP2
21233;SDS011;10774;42.178;26.578;2022-08-26T00:01:15;21.17;;;15.32;;
21233;SDS011;10774;42.178;26.578;2022-08-26T00:03:41;24.38;;;15.15;;
21233;SDS011;10774;42.178;26.578;2022-08-26T00:06:08;24.45;;;14.80;;
21233;SDS011;10774;42.178;26.578;2022-08-26T00:08:35;20.60;;;14.20;;
21233;SDS011;10774;42.178;26.578;2022-08-26T00:11:00;24.48;;;15.27;;
21233;SDS011;10774;42.178;26.578;2022-08-26T00:13:26;29.90;;;17.23;;
21233;SDS011;10774;42.178;26.578;2022-08-26T00:15:53;24.15;;;16.67;;
21233;SDS011;10774;42.178;26.578;2022-08-26T00:18:19;19.95;;;17.85;;
21233;SDS011;10774;42.178;26.578;2022-08-26T00:20:45;28.23;;;19.23;;
21233;SDS011;10774;42.178;26.578;2022-08-26T00:23:10;26.70;;;17.73;;
21233;SDS011;10774;42.178;26.578;2022-08-26T00:25:36;22.10;;;16.50;;
21233;SDS011;10774;42.178;26.578;2022-08-26T00:28:02;28.05;;;17.40;;
21233;SDS011;10774;42.178;26.578;2022-08-26T00:30:29;22.58;;;16.35;;
21233;SDS011;10774;42.178;26.578;2022-08-26T00:32:55;29.15;;;16.45;;
21233;SDS011;10774;42.178;26.578;2022-08-26T00:35:22;23.15;;;14.40;;
21233;SDS011;10774;42.178;26.578;2022-08-26T00:37:48;24.27;;;15.90;;
21233;SDS011;10774;42.178;26.578;2022-08-26T00:40:16;19.85;;;16.65;;
21233;SDS011;10774;42.178;26.578;2022-08-26T00:42:44;22.77;;;13.70;;
21233;SDS011;10774;42.178;26.578;2022-08-26T00:45:11;28.65;;;13.88;;
21233;SDS011;10774;42.178;26.578;2022-08-26T00:47:52;25.08;;;15.30;;
21233;SDS011;10774;42.178;26.578;2022-08-26T00:50:22;22.38;;;16.13;;
21233;SDS011;10774;42.178;26.578;2022-08-26T00:52:53;26.60;;;17.75;;
21233;SDS011;10774;42.178;26.578;2022-08-26T00:55:21;29.65;;;18.30;;
21233;SDS011;10774;42.178;26.578;2022-08-26T00:57:52;31.77;;;17.48;;
21233;SDS011;10774;42.178;26.578;2022-08-26T01:00:22;25.80;;;16.73;;
21233;SDS011;10774;42.178;26.578;2022-08-26T01:02:51;18.33;;;14.00;;
21233;SDS011;10774;42.178;26.578;2022-08-26T01:05:18;23.80;;;14.07;;
21233;SDS011;10774;42.178;26.578;2022-08-26T01:07:44;26.10;;;14.18;;
21233;SDS011;10774;42.178;26.578;2022-08-26T01:10:12;21.27;;;13.38;;
21233;SDS011;10774;42.178;26.578;2022-08-26T01:12:44;25.20;;;12.68;;
21233;SDS011;10774;42.178;26.578;2022-08-26T01:15:14;26.17;;;11.38;;
21233;SDS011;10774;42.178;26.578;2022-08-26T01:17:43;17.20;;;9.93;;
21233;SDS011;10774;42.178;26.578;2022-08-26T01:22:54;18.52;;;9.20;;
21233;SDS011;10774;42.178;26.578;2022-08-26T01:25:22;24.58;;;9.30;;
21233;SDS011;10774;42.178;26.578;2022-08-26T01:27:51;21.33;;;8.48;;
21233;SDS011;10774;42.178;26.578;2022-08-26T01:30:20;22.52;;;7.57;;
21233;SDS011;10774;42.178;26.578;2022-08-26T01:32:46;19.00;;;7.30;;
21233;SDS011;10774;42.178;26.578;2022-08-26T01:35:14;23.13;;;6.80;;
21233;SDS011;10774;42.178;26.578;2022-08-26T01:37:39;25.60;;;7.50;;
21233;SDS011;10774;42.178;26.578;2022-08-26T01:40:05;26.08;;;7.85;;
21233;SDS011;10774;42.178;26.578;2022-08-26T01:42:33;17.50;;;7.18;;
21233;SDS011;10774;42.178;26.578;2022-08-26T01:45:08;24.30;;;7.38;;
21233;SDS011;10774;42.178;26.578;2022-08-26T01:47:38;25.02;;;7.13;;
21233;SDS011;10774;42.178;26.578;2022-08-26T01:50:07;20.63;;;6.97;;
21233;SDS011;10774;42.178;26.578;2022-08-26T01:52:37;22.40;;;6.70;;
21233;SDS011;10774;42.178;26.578;2022-08-26T01:55:06;28.17;;;7.53;;
21233;SDS011;10774;42.178;26.578;2022-08-26T01:57:33;16.58;;;6.90;;
21233;SDS011;10774;42.178;26.578;2022-08-26T02:00:00;18.27;;;6.82;;
21233;SDS011;10774;42.178;26.578;2022-08-26T02:02:28;24.98;;;6.53;;
21233;SDS011;10774;42.178;26.578;2022-08-26T02:04:58;29.13;;;7.63;;
21233;SDS011;10774;42.178;26.578;2022-08-26T02:07:28;19.70;;;6.90;;
21233;SDS011;10774;42.178;26.578;2022-08-26T02:09:55;21.17;;;6.10;;
21233;SDS011;10774;42.178;26.578;2022-08-26T02:12:21;18.58;;;5.82;;
21233;SDS011;10774;42.178;26.578;2022-08-26T02:14:47;17.67;;;5.00;;
21233;SDS011;10774;42.178;26.578;2022-08-26T02:17:17;21.38;;;5.47;;
21233;SDS011;10774;42.178;26.578;2022-08-26T02:19:46;17.98;;;5.38;;
21233;SDS011;10774;42.178;26.578;2022-08-26T02:22:14;22.98;;;4.50;;
21233;SDS011;10774;42.178;26.578;2022-08-26T02:24:48;14.05;;;4.75;;
21233;SDS011;10774;42.178;26.578;2022-08-26T02:27:15;21.27;;;5.40;;
21233;SDS011;10774;42.178;26.578;2022-08-26T02:29:46;21.13;;;4.72;;
21233;SDS011;10774;42.178;26.578;2022-08-26T02:32:15;20.25;;;4.95;;
21233;SDS011;10774;42.178;26.578;2022-08-26T02:34:41;16.75;;;4.60;;
21233;SDS011;10774;42.178;26.578;2022-08-26T02:37:07;17.52;;;4.35;;
21233;SDS011;10774;42.178;26.578;2022-08-26T02:39:36;22.13;;;4.50;;
21233;SDS011;10774;42.178;26.578;2022-08-26T02:42:03;18.60;;;4.72;;
21233;SDS011;10774;42.178;26.578;2022-08-26T02:44:29;17.90;;;4.90;;
21233;SDS011;10774;42.178;26.578;2022-08-26T02:46:56;16.85;;;4.57;;
21233;SDS011;10774;42.178;26.578;2022-08-26T02:49:22;21.90;;;4.90;;
21233;SDS011;10774;42.178;26.578;2022-08-26T02:51:49;17.63;;;4.70;;
21233;SDS011;10774;42.178;26.578;2022-08-26T02:54:15;22.35;;;4.97;;
21233;SDS011;10774;42.178;26.578;2022-08-26T02:56:42;17.10;;;4.25;;
21233;SDS011;10774;42.178;26.578;2022-08-26T02:59:08;17.02;;;4.40;;
21233;SDS011;10774;42.178;26.578;2022-08-26T03:01:37;18.92;;;4.63;;
21233;SDS011;10774;42.178;26.578;2022-08-26T03:04:05;16.95;;;4.55;;
21233;SDS011;10774;42.178;26.578;2022-08-26T03:06:32;17.30;;;4.90;;
21233;SDS011;10774;42.178;26.578;2022-08-26T03:08:57;17.42;;;4.43;;
21233;SDS011;10774;42.178;26.578;2022-08-26T03:11:23;14.13;;;3.97;;
21233;SDS011;10774;42.178;26.578;2022-08-26T03:13:49;17.90;;;4.28;;
21233;SDS011;10774;42.178;26.578;2022-08-26T03:16:15;15.55;;;4.80;;
21233;SDS011;10774;42.178;26.578;2022-08-26T03:18:41;17.52;;;3.95;;
21233;SDS011;10774;42.178;26.578;2022-08-26T03:21:08;21.40;;;4.50;;
21233;SDS011;10774;42.178;26.578;2022-08-26T03:23:35;17.55;;;4.72;;
21233;SDS011;10774;42.178;26.578;2022-08-26T03:26:02;20.27;;;4.90;;
21233;SDS011;10774;42.178;26.578;2022-08-26T03:28:29;21.83;;;5.10;;
21233;SDS011;10774;42.178;26.578;2022-08-26T03:30:55;18.23;;;5.03;;
21233;SDS011;10774;42.178;26.578;2022-08-26T03:33:21;17.88;;;5.00;;
21233;SDS011;10774;42.178;26.578;2022-08-26T03:35:48;18.42;;;5.13;;
21233;SDS011;10774;42.178;26.578;2022-08-26T03:38:14;14.32;;;4.28;;
21233;SDS011;10774;42.178;26.578;2022-08-26T03:40:41;13.77;;;3.95;;
21233;SDS011;10774;42.178;26.578;2022-08-26T03:43:07;19.27;;;5.10;;
21233;SDS011;10774;42.178;26.578;2022-08-26T03:45:34;15.98;;;4.95;;
21233;SDS011;10774;42.178;26.578;2022-08-26T03:48:00;14.15;;;4.38;;
21233;SDS011;10774;42.178;26.578;2022-08-26T03:50:27;15.00;;;4.20;;
21233;SDS011;10774;42.178;26.578;2022-08-26T03:52:54;16.17;;;4.30;;
21233;SDS011;10774;42.178;26.578;2022-08-26T03:55:21;16.90;;;4.57;;
21233;SDS011;10774;42.178;26.578;2022-08-26T03:57:50;22.75;;;5.03;;
21233;SDS011;10774;42.178;26.578;2022-08-26T04:00:16;13.77;;;4.28;;
21233;SDS011;10774;42.178;26.578;2022-08-26T04:02:43;18.20;;;4.45;;
21233;SDS011;10774;42.178;26.578;2022-08-26T04:05:11;19.20;;;4.63;;
21233;SDS011;10774;42.178;26.578;2022-08-26T04:07:38;13.60;;;4.10;;
21233;SDS011;10774;42.178;26.578;2022-08-26T04:10:04;13.60;;;3.40;;
21233;SDS011;10774;42.178;26.578;2022-08-26T04:12:30;15.85;;;4.60;;
21233;SDS011;10774;42.178;26.578;2022-08-26T04:14:56;15.55;;;4.30;;
21233;SDS011;10774;42.178;26.578;2022-08-26T04:17:22;19.95;;;4.32;;
21233;SDS011;10774;42.178;26.578;2022-08-26T04:19:49;18.98;;;4.38;;
21233;SDS011;10774;42.178;26.578;2022-08-26T04:22:16;23.50;;;5.13;;
21233;SDS011;10774;42.178;26.578;2022-08-26T04:24:42;17.67;;;4.90;;
21233;SDS011;10774;42.178;26.578;2022-08-26T04:27:08;17.23;;;4.82;;
21233;SDS011;10774;42.178;26.578;2022-08-26T04:29:34;23.70;;;5.03;;
21233;SDS011;10774;42.178;26.578;2022-08-26T04:32:00;22.25;;;6.15;;
21233;SDS011;10774;42.178;26.578;2022-08-26T04:34:27;18.50;;;5.30;;
21233;SDS011;10774;42.178;26.578;2022-08-26T04:36:53;21.55;;;5.47;;
21233;SDS011;10774;42.178;26.578;2022-08-26T04:39:20;27.00;;;6.05;;
21233;SDS011;10774;42.178;26.578;2022-08-26T04:41:46;16.83;;;5.35;;
21233;SDS011;10774;42.178;26.578;2022-08-26T04:44:12;20.75;;;4.82;;
21233;SDS011;10774;42.178;26.578;2022-08-26T04:46:38;17.95;;;5.55;;
21233;SDS011;10774;42.178;26.578;2022-08-26T04:49:05;21.95;;;5.70;;
21233;SDS011;10774;42.178;26.578;2022-08-26T04:51:32;23.50;;;5.78;;
21233;SDS011;10774;42.178;26.578;2022-08-26T04:53:59;24.70;;;6.57;;
21233;SDS011;10774;42.178;26.578;2022-08-26T04:56:29;17.83;;;6.10;;
21233;SDS011;10774;42.178;26.578;2022-08-26T04:58:59;27.90;;;6.50;;
21233;SDS011;10774;42.178;26.578;2022-08-26T05:01:26;21.08;;;5.55;;
21233;SDS011;10774;42.178;26.578;2022-08-26T05:03:52;28.25;;;6.55;;
21233;SDS011;10774;42.178;26.578;2022-08-26T05:06:18;16.50;;;5.93;;
21233;SDS011;10774;42.178;26.578;2022-08-26T05:08:44;15.65;;;4.78;;
21233;SDS011;10774;42.178;26.578;2022-08-26T05:11:10;12.98;;;5.05;;
21233;SDS011;10774;42.178;26.578;2022-08-26T05:13:36;17.73;;;5.30;;
21233;SDS011;10774;42.178;26.578;2022-08-26T05:16:07;16.58;;;5.70;;
21233;SDS011;10774;42.178;26.578;2022-08-26T05:18:34;22.58;;;6.03;;
21233;SDS011;10774;42.178;26.578;2022-08-26T05:21:01;27.67;;;5.63;;
21233;SDS011;10774;42.178;26.578;2022-08-26T05:23:27;19.48;;;5.32;;
21233;SDS011;10774;42.178;26.578;2022-08-26T05:25:56;18.77;;;5.22;;
21233;SDS011;10774;42.178;26.578;2022-08-26T05:28:22;13.52;;;5.22;;
21233;SDS011;10774;42.178;26.578;2022-08-26T05:30:48;16.20;;;5.65;;
21233;SDS011;10774;42.178;26.578;2022-08-26T05:33:15;19.75;;;5.10;;
21233;SDS011;10774;42.178;26.578;2022-08-26T05:35:41;17.88;;;5.53;;
21233;SDS011;10774;42.178;26.578;2022-08-26T05:38:09;28.40;;;6.45;;
21233;SDS011;10774;42.178;26.578;2022-08-26T05:40:41;74.45;;;10.52;;
21233;SDS011;10774;42.178;26.578;2022-08-26T05:43:09;128.10;;;11.48;;
21233;SDS011;10774;42.178;26.578;2022-08-26T05:45:37;50.58;;;8.63;;
21233;SDS011;10774;42.178;26.578;2022-08-26T05:48:04;31.58;;;6.28;;
21233;SDS011;10774;42.178;26.578;2022-08-26T05:50:39;25.52;;;5.78;;
21233;SDS011;10774;42.178;26.578;2022-08-26T05:53:07;26.83;;;6.13;;
21233;SDS011;10774;42.178;26.578;2022-08-26T05:55:34;17.10;;;5.03;;
21233;SDS011;10774;42.178;26.578;2022-08-26T05:58:05;17.83;;;5.07;;
21233;SDS011;10774;42.178;26.578;2022-08-26T06:00:31;14.88;;;5.07;;
21233;SDS011;10774;42.178;26.578;2022-08-26T06:02:57;17.83;;;5.25;;
21233;SDS011;10774;42.178;26.578;2022-08-26T06:05:22;18.65;;;5.07;;
21233;SDS011;10774;42.178;26.578;2022-08-26T06:07:47;26.83;;;5.45;;
21233;SDS011;10774;42.178;26.578;2022-08-26T06:10:31;14.93;;;5.30;;
21233;SDS011;10774;42.178;26.578;2022-08-26T06:12:57;21.33;;;5.35;;
21233;SDS011;10774;42.178;26.578;2022-08-26T06:15:23;17.10;;;5.65;;
21233;SDS011;10774;42.178;26.578;2022-08-26T06:17:50;24.42;;;4.97;;
21233;SDS011;10774;42.178;26.578;2022-08-26T06:20:15;111.90;;;10.15;;
21233;SDS011;10774;42.178;26.578;2022-08-26T06:22:41;24.95;;;5.05;;
21233;SDS011;10774;42.178;26.578;2022-08-26T06:25:24;19.90;;;5.15;;
21233;SDS011;10774;42.178;26.578;2022-08-26T06:28:02;13.68;;;5.28;;
21233;SDS011;10774;42.178;26.578;2022-08-26T06:30:27;21.83;;;4.80;;
21233;SDS011;10774;42.178;26.578;2022-08-26T06:32:53;16.52;;;4.88;;
21233;SDS011;10774;42.178;26.578;2022-08-26T06:35:18;25.38;;;5.00;;
21233;SDS011;10774;42.178;26.578;2022-08-26T06:37:44;24.67;;;6.00;;
21233;SDS011;10774;42.178;26.578;2022-08-26T06:40:09;27.00;;;5.47;;
21233;SDS011;10774;42.178;26.578;2022-08-26T06:42:35;25.83;;;5.93;;
21233;SDS011;10774;42.178;26.578;2022-08-26T06:45:02;30.63;;;5.55;;
21233;SDS011;10774;42.178;26.578;2022-08-26T06:47:29;22.65;;;4.72;;
21233;SDS011;10774;42.178;26.578;2022-08-26T06:49:55;21.02;;;5.60;;
21233;SDS011;10774;42.178;26.578;2022-08-26T06:52:20;18.08;;;3.78;;
21233;SDS011;10774;42.178;26.578;2022-08-26T06:54:46;15.40;;;4.22;;
21233;SDS011;10774;42.178;26.578;2022-08-26T06:57:11;15.52;;;4.05;;
21233;SDS011;10774;42.178;26.578;2022-08-26T06:59:37;17.83;;;3.70;;
21233;SDS011;10774;42.178;26.578;2022-08-26T07:02:03;12.18;;;3.28;;
21233;SDS011;10774;42.178;26.578;2022-08-26T07:04:30;14.98;;;3.55;;
21233;SDS011;10774;42.178;26.578;2022-08-26T07:06:56;105.70;;;9.90;;
21233;SDS011;10774;42.178;26.578;2022-08-26T07:09:23;47.75;;;5.60;;
21233;SDS011;10774;42.178;26.578;2022-08-26T07:11:51;39.72;;;5.80;;
21233;SDS011;10774;42.178;26.578;2022-08-26T07:14:17;19.35;;;4.55;;
21233;SDS011;10774;42.178;26.578;2022-08-26T07:16:43;18.05;;;3.78;;
21233;SDS011;10774;42.178;26.578;2022-08-26T07:19:09;27.08;;;4.88;;
21233;SDS011;10774;42.178;26.578;2022-08-26T07:21:35;23.63;;;4.82;;
21233;SDS011;10774;42.178;26.578;2022-08-26T07:24:00;17.52;;;4.63;;
21233;SDS011;10774;42.178;26.578;2022-08-26T07:26:27;23.67;;;4.95;;
21233;SDS011;10774;42.178;26.578;2022-08-26T07:28:54;23.77;;;4.00;;
21233;SDS011;10774;42.178;26.578;2022-08-26T07:31:21;18.58;;;3.38;;
21233;SDS011;10774;42.178;26.578;2022-08-26T07:33:48;17.73;;;4.03;;
21233;SDS011;10774;42.178;26.578;2022-08-26T07:36:16;17.15;;;4.15;;
21233;SDS011;10774;42.178;26.578;2022-08-26T07:38:42;20.35;;;4.80;;
21233;SDS011;10774;42.178;26.578;2022-08-26T07:41:09;14.50;;;3.80;;
21233;SDS011;10774;42.178;26.578;2022-08-26T07:43:37;13.75;;;3.97;;
21233;SDS011;10774;42.178;26.578;2022-08-26T07:46:03;20.08;;;4.00;;
21233;SDS011;10774;42.178;26.578;2022-08-26T07:48:30;26.42;;;4.35;;
21233;SDS011;10774;42.178;26.578;2022-08-26T07:50:55;16.00;;;4.15;;
21233;SDS011;10774;42.178;26.578;2022-08-26T07:53:21;20.10;;;4.30;;
21233;SDS011;10774;42.178;26.578;2022-08-26T07:55:47;19.05;;;4.30;;
21233;SDS011;10774;42.178;26.578;2022-08-26T07:58:12;22.33;;;4.03;;
21233;SDS011;10774;42.178;26.578;2022-08-26T08:00:38;21.63;;;4.10;;
21233;SDS011;10774;42.178;26.578;2022-08-26T08:03:04;21.52;;;4.57;;
21233;SDS011;10774;42.178;26.578;2022-08-26T08:05:30;22.85;;;4.00;;
21233;SDS011;10774;42.178;26.578;2022-08-26T08:07:59;18.15;;;3.53;;
21233;SDS011;10774;42.178;26.578;2022-08-26T08:10:26;15.50;;;3.10;;
21233;SDS011;10774;42.178;26.578;2022-08-26T08:12:53;20.45;;;3.65;;
21233;SDS011;10774;42.178;26.578;2022-08-26T08:15:21;29.27;;;3.72;;
21233;SDS011;10774;42.178;26.578;2022-08-26T08:17:50;17.73;;;3.88;;
21233;SDS011;10774;42.178;26.578;2022-08-26T08:20:16;20.85;;;3.80;;
21233;SDS011;10774;42.178;26.578;2022-08-26T08:22:41;20.45;;;4.10;;
21233;SDS011;10774;42.178;26.578;2022-08-26T08:25:07;21.17;;;3.72;;
21233;SDS011;10774;42.178;26.578;2022-08-26T08:27:34;18.08;;;3.53;;
21233;SDS011;10774;42.178;26.578;2022-08-26T08:30:01;12.75;;;3.13;;
21233;SDS011;10774;42.178;26.578;2022-08-26T08:32:27;18.20;;;3.70;;
21233;SDS011;10774;42.178;26.578;2022-08-26T08:34:53;12.27;;;3.70;;
21233;SDS011;10774;42.178;26.578;2022-08-26T08:37:19;19.85;;;4.00;;
21233;SDS011;10774;42.178;26.578;2022-08-26T08:39:45;16.13;;;4.05;;
21233;SDS011;10774;42.178;26.578;2022-08-26T08:45:02;19.05;;;4.30;;
21233;SDS011;10774;42.178;26.578;2022-08-26T08:47:38;24.92;;;5.20;;
21233;SDS011;10774;42.178;26.578;2022-08-26T08:52:46;20.33;;;4.70;;
21233;SDS011;10774;42.178;26.578;2022-08-26T08:55:23;23.83;;;6.18;;
21233;SDS011;10774;42.178;26.578;2022-08-26T08:58:01;10.68;;;3.85;;
21233;SDS011;10774;42.178;26.578;2022-08-26T09:00:41;22.67;;;4.60;;
21233;SDS011;10774;42.178;26.578;2022-08-26T09:06:04;24.77;;;4.22;;
21233;SDS011;10774;42.178;26.578;2022-08-26T09:08:41;15.23;;;3.97;;
21233;SDS011;10774;42.178;26.578;2022-08-26T09:11:08;26.58;;;4.82;;
21233;SDS011;10774;42.178;26.578;2022-08-26T09:13:33;22.63;;;4.35;;
21233;SDS011;10774;42.178;26.578;2022-08-26T09:16:04;16.65;;;3.92;;
21233;SDS011;10774;42.178;26.578;2022-08-26T09:21:07;22.58;;;3.78;;
21233;SDS011;10774;42.178;26.578;2022-08-26T09:23:37;29.30;;;4.97;;
21233;SDS011;10774;42.178;26.578;2022-08-26T09:26:15;19.60;;;4.32;;
21233;SDS011;10774;42.178;26.578;2022-08-26T09:28:47;19.08;;;3.78;;
21233;SDS011;10774;42.178;26.578;2022-08-26T09:34:06;12.52;;;5.55;;
21233;SDS011;10774;42.178;26.578;2022-08-26T09:39:27;20.98;;;5.10;;
21233;SDS011;10774;42.178;26.578;2022-08-26T09:44:30;26.80;;;5.70;;
21233;SDS011;10774;42.178;26.578;2022-08-26T09:46:58;19.25;;;5.38;;
21233;SDS011;10774;42.178;26.578;2022-08-26T09:49:33;15.02;;;4.70;;
21233;SDS011;10774;42.178;26.578;2022-08-26T09:52:14;22.35;;;4.85;;
21233;SDS011;10774;42.178;26.578;2022-08-26T09:54:45;21.02;;;5.22;;
21233;SDS011;10774;42.178;26.578;2022-08-26T10:00:25;18.40;;;4.72;;
21233;SDS011;10774;42.178;26.578;2022-08-26T10:03:04;24.55;;;5.70;;
21233;SDS011;10774;42.178;26.578;2022-08-26T10:05:40;28.02;;;4.70;;
21233;SDS011;10774;42.178;26.578;2022-08-26T10:08:29;20.15;;;4.78;;
21233;SDS011;10774;42.178;26.578;2022-08-26T10:10:58;24.75;;;4.93;;
21233;SDS011;10774;42.178;26.578;2022-08-26T10:13:27;25.85;;;5.22;;
21233;SDS011;10774;42.178;26.578;2022-08-26T10:19:08;21.13;;;4.68;;
21233;SDS011;10774;42.178;26.578;2022-08-26T10:24:16;15.07;;;3.92;;
21233;SDS011;10774;42.178;26.578;2022-08-26T10:26:58;17.67;;;4.15;;
21233;SDS011;10774;42.178;26.578;2022-08-26T10:29:39;14.75;;;4.25;;
21233;SDS011;10774;42.178;26.578;2022-08-26T10:35:03;24.15;;;5.32;;
21233;SDS011;10774;42.178;26.578;2022-08-26T10:37:34;18.25;;;3.63;;
21233;SDS011;10774;42.178;26.578;2022-08-26T10:40:04;23.05;;;4.10;;
21233;SDS011;10774;42.178;26.578;2022-08-26T10:45:15;20.38;;;4.18;;
21233;SDS011;10774;42.178;26.578;2022-08-26T10:50:36;19.40;;;3.58;;
21233;SDS011;10774;42.178;26.578;2022-08-26T10:55:56;16.15;;;3.30;;
21233;SDS011;10774;42.178;26.578;2022-08-26T10:58:39;21.17;;;3.28;;
21233;SDS011;10774;42.178;26.578;2022-08-26T11:01:17;22.27;;;3.58;;
21233;SDS011;10774;42.178;26.578;2022-08-26T11:06:35;11.32;;;2.95;;
21233;SDS011;10774;42.178;26.578;2022-08-26T11:09:03;16.42;;;3.88;;
21233;SDS011;10774;42.178;26.578;2022-08-26T11:14:06;16.30;;;3.37;;
21233;SDS011;10774;42.178;26.578;2022-08-26T11:16:34;16.95;;;3.50;;
21233;SDS011;10774;42.178;26.578;2022-08-26T11:19:00;18.38;;;3.38;;
21233;SDS011;10774;42.178;26.578;2022-08-26T11:27:03;21.23;;;3.22;;
21233;SDS011;10774;42.178;26.578;2022-08-26T11:32:23;16.00;;;3.70;;
21233;SDS011;10774;42.178;26.578;2022-08-26T11:37:41;18.98;;;3.50;;
21233;SDS011;10774;42.178;26.578;2022-08-26T11:40:16;19.63;;;3.55;;
21233;SDS011;10774;42.178;26.578;2022-08-26T11:48:19;14.23;;;3.45;;
21233;SDS011;10774;42.178;26.578;2022-08-26T11:50:53;16.17;;;3.38;;
21233;SDS011;10774;42.178;26.578;2022-08-26T11:53:20;21.58;;;4.10;;
21233;SDS011;10774;42.178;26.578;2022-08-26T11:55:46;16.98;;;3.35;;
21233;SDS011;10774;42.178;26.578;2022-08-26T11:58:14;17.30;;;3.47;;
21233;SDS011;10774;42.178;26.578;2022-08-26T12:03:18;23.73;;;4.13;;
21233;SDS011;10774;42.178;26.578;2022-08-26T12:05:47;15.38;;;3.10;;
21233;SDS011;10774;42.178;26.578;2022-08-26T12:08:16;19.50;;;3.95;;
21233;SDS011;10774;42.178;26.578;2022-08-26T12:10:46;20.67;;;3.13;;
21233;SDS011;10774;42.178;26.578;2022-08-26T12:13:23;22.33;;;5.45;;
21233;SDS011;10774;42.178;26.578;2022-08-26T12:15:50;20.02;;;3.63;;
21233;SDS011;10774;42.178;26.578;2022-08-26T12:18:22;19.48;;;3.38;;
21233;SDS011;10774;42.178;26.578;2022-08-26T12:20:50;14.30;;;3.55;;
21233;SDS011;10774;42.178;26.578;2022-08-26T12:24:01;16.77;;;3.75;;
21233;SDS011;10774;42.178;26.578;2022-08-26T12:26:19;17.05;;;3.42;;
21233;SDS011;10774;42.178;26.578;2022-08-26T12:28:49;21.40;;;3.85;;
21233;SDS011;10774;42.178;26.578;2022-08-26T12:31:20;13.13;;;3.30;;
21233;SDS011;10774;42.178;26.578;2022-08-26T12:34:06;14.00;;;3.13;;
21233;SDS011;10774;42.178;26.578;2022-08-26T12:36:35;22.52;;;3.47;;
21233;SDS011;10774;42.178;26.578;2022-08-26T12:39:09;18.50;;;3.17;;
21233;SDS011;10774;42.178;26.578;2022-08-26T12:41:59;19.90;;;3.53;;
21233;SDS011;10774;42.178;26.578;2022-08-26T12:52:32;14.00;;;3.22;;
21233;SDS011;10774;42.178;26.578;2022-08-26T12:55:06;18.27;;;3.53;;
21233;SDS011;10774;42.178;26.578;2022-08-26T12:57:43;21.58;;;3.33;;
21233;SDS011;10774;42.178;26.578;2022-08-26T13:02:58;21.23;;;3.80;;
21233;SDS011;10774;42.178;26.578;2022-08-26T13:05:34;21.42;;;3.55;;
21233;SDS011;10774;42.178;26.578;2022-08-26T13:08:08;18.20;;;3.40;;
21233;SDS011;10774;42.178;26.578;2022-08-26T13:10:37;19.98;;;3.88;;
21233;SDS011;10774;42.178;26.578;2022-08-26T13:13:06;18.13;;;3.30;;
21233;SDS011;10774;42.178;26.578;2022-08-26T13:15:31;15.93;;;3.15;;
21233;SDS011;10774;42.178;26.578;2022-08-26T13:17:56;21.25;;;3.55;;
21233;SDS011;10774;42.178;26.578;2022-08-26T13:20:22;20.67;;;4.13;;
21233;SDS011;10774;42.178;26.578;2022-08-26T13:22:48;16.70;;;3.13;;
21233;SDS011;10774;42.178;26.578;2022-08-26T13:25:14;21.67;;;3.65;;
21233;SDS011;10774;42.178;26.578;2022-08-26T13:27:40;20.67;;;3.53;;
21233;SDS011;10774;42.178;26.578;2022-08-26T13:30:07;19.33;;;4.15;;
21233;SDS011;10774;42.178;26.578;2022-08-26T13:32:33;19.30;;;3.47;;
21233;SDS011;10774;42.178;26.578;2022-08-26T13:34:59;16.08;;;2.67;;
21233;SDS011;10774;42.178;26.578;2022-08-26T13:37:24;17.90;;;3.70;;
21233;SDS011;10774;42.178;26.578;2022-08-26T13:39:51;21.20;;;3.63;;
21233;SDS011;10774;42.178;26.578;2022-08-26T13:42:18;19.95;;;3.70;;
21233;SDS011;10774;42.178;26.578;2022-08-26T13:44:44;22.33;;;3.83;;
21233;SDS011;10774;42.178;26.578;2022-08-26T13:47:14;17.67;;;3.22;;
21233;SDS011;10774;42.178;26.578;2022-08-26T13:49:41;17.38;;;3.20;;
21233;SDS011;10774;42.178;26.578;2022-08-26T13:52:08;20.08;;;3.58;;
21233;SDS011;10774;42.178;26.578;2022-08-26T13:54:35;18.48;;;4.07;;
21233;SDS011;10774;42.178;26.578;2022-08-26T13:57:00;20.65;;;4.13;;
21233;SDS011;10774;42.178;26.578;2022-08-26T13:59:26;22.15;;;3.30;;
21233;SDS011;10774;42.178;26.578;2022-08-26T14:01:52;21.45;;;3.33;;
21233;SDS011;10774;42.178;26.578;2022-08-26T14:04:17;20.23;;;3.83;;
21233;SDS011;10774;42.178;26.578;2022-08-26T14:06:42;18.45;;;3.28;;
21233;SDS011;10774;42.178;26.578;2022-08-26T14:09:08;20.77;;;4.03;;
21233;SDS011;10774;42.178;26.578;2022-08-26T14:11:34;16.90;;;3.17;;
21233;SDS011;10774;42.178;26.578;2022-08-26T14:13:59;19.05;;;3.80;;
21233;SDS011;10774;42.178;26.578;2022-08-26T14:16:32;17.67;;;3.58;;
21233;SDS011;10774;42.178;26.578;2022-08-26T14:19:01;20.45;;;3.67;;
21233;SDS011;10774;42.178;26.578;2022-08-26T14:21:30;23.08;;;3.60;;
21233;SDS011;10774;42.178;26.578;2022-08-26T14:23:57;20.50;;;3.20;;
21233;SDS011;10774;42.178;26.578;2022-08-26T14:26:23;14.85;;;2.83;;
21233;SDS011;10774;42.178;26.578;2022-08-26T14:28:48;18.77;;;3.65;;
21233;SDS011;10774;42.178;26.578;2022-08-26T14:31:14;22.02;;;3.35;;
21233;SDS011;10774;42.178;26.578;2022-08-26T14:33:39;14.57;;;3.20;;
21233;SDS011;10774;42.178;26.578;2022-08-26T14:36:05;14.57;;;3.15;;
21233;SDS011;10774;42.178;26.578;2022-08-26T14:38:49;19.43;;;3.70;;
21233;SDS011;10774;42.178;26.578;2022-08-26T14:41:16;20.60;;;3.38;;
21233;SDS011;10774;42.178;26.578;2022-08-26T14:43:45;21.05;;;4.25;;
21233;SDS011;10774;42.178;26.578;2022-08-26T14:46:14;25.40;;;3.70;;
21233;SDS011;10774;42.178;26.578;2022-08-26T14:48:40;17.40;;;3.20;;
21233;SDS011;10774;42.178;26.578;2022-08-26T14:51:06;25.95;;;3.58;;
21233;SDS011;10774;42.178;26.578;2022-08-26T14:53:32;22.30;;;3.10;;
21233;SDS011;10774;42.178;26.578;2022-08-26T14:56:15;18.73;;;3.55;;
21233;SDS011;10774;42.178;26.578;2022-08-26T14:58:42;24.80;;;3.88;;
21233;SDS011;10774;42.178;26.578;2022-08-26T15:01:08;17.30;;;3.03;;
21233;SDS011;10774;42.178;26.578;2022-08-26T15:03:36;13.27;;;2.95;;
21233;SDS011;10774;42.178;26.578;2022-08-26T15:06:01;13.35;;;3.55;;
21233;SDS011;10774;42.178;26.578;2022-08-26T15:08:26;19.27;;;3.00;;
21233;SDS011;10774;42.178;26.578;2022-08-26T15:10:52;17.67;;;3.30;;
21233;SDS011;10774;42.178;26.578;2022-08-26T15:13:17;19.50;;;3.35;;
21233;SDS011;10774;42.178;26.578;2022-08-26T15:15:43;23.75;;;3.22;;
21233;SDS011;10774;42.178;26.578;2022-08-26T15:18:09;19.20;;;3.65;;
21233;SDS011;10774;42.178;26.578;2022-08-26T15:20:34;13.40;;;2.95;;
21233;SDS011;10774;42.178;26.578;2022-08-26T15:23:00;18.50;;;3.75;;
21233;SDS011;10774;42.178;26.578;2022-08-26T15:25:25;27.48;;;3.65;;
21233;SDS011;10774;42.178;26.578;2022-08-26T15:27:51;18.88;;;3.13;;
21233;SDS011;10774;42.178;26.578;2022-08-26T15:30:16;15.80;;;3.30;;
21233;SDS011;10774;42.178;26.578;2022-08-26T15:32:42;18.77;;;4.13;;
21233;SDS011;10774;42.178;26.578;2022-08-26T15:35:07;68.68;;;42.45;;
21233;SDS011;10774;42.178;26.578;2022-08-26T15:37:33;72.80;;;45.67;;
21233;SDS011;10774;42.178;26.578;2022-08-26T15:39:58;61.97;;;32.65;;
21233;SDS011;10774;42.178;26.578;2022-08-26T15:42:24;56.95;;;36.33;;
21233;SDS011;10774;42.178;26.578;2022-08-26T15:44:49;71.40;;;43.15;;